sensor_id;sensor_type;location;lat;lon;timestamp;temperature;humidity
21678;DHT22;11000;50.360;7.582;2024-01-11T00:01:45;-3.80;99.90
21678;DHT22;11000;50.360;7.582;2024-01-11T00:04:06;-3.80;99.90
21678;DHT22;11000;50.360;7.582;2024-01-11T00:06:27;-3.80;99.90
21678;DHT22;11000;50.360;7.582;2024-01-11T00:08:47;-3.90;99.90
21678;DHT22;11000;50.360;7.582;2024-01-11T00:11:08;-3.80;99.90
21678;DHT22;11000;50.360;7.582;2024-01-11T00:13:28;-3.80;99.90
21678;DHT22;11000;50.360;7.582;2024-01-11T00:15:49;-3.80;99.90
21678;DHT22;11000;50.360;7.582;2024-01-11T00:18:09;-3.80;99.90
21678;DHT22;11000;50.360;7.582;2024-01-11T00:20:29;-3.80;99.90
21678;DHT22;11000;50.360;7.582;2024-01-11T00:22:50;-3.80;99.90
21678;DHT22;11000;50.360;7.582;2024-01-11T00:25:10;-3.90;99.90
21678;DHT22;11000;50.360;7.582;2024-01-11T00:27:31;-3.90;99.90
21678;DHT22;11000;50.360;7.582;2024-01-11T00:29:53;-3.90;99.90
21678;DHT22;11000;50.360;7.582;2024-01-11T00:32:13;-3.90;99.90
21678;DHT22;11000;50.360;7.582;2024-01-11T00:34:34;-3.90;99.90
21678;DHT22;11000;50.360;7.582;2024-01-11T00:36:56;-4.00;99.90
21678;DHT22;11000;50.360;7.582;2024-01-11T00:39:16;-4.00;99.90
21678;DHT22;11000;50.360;7.582;2024-01-11T00:41:37;-4.00;99.90
21678;DHT22;11000;50.360;7.582;2024-01-11T00:43:58;-4.00;99.90
21678;DHT22;11000;50.360;7.582;2024-01-11T00:46:18;-4.10;99.90
21678;DHT22;11000;50.360;7.582;2024-01-11T00:48:38;-4.10;99.90
21678;DHT22;11000;50.360;7.582;2024-01-11T00:50:59;-4.00;99.90
21678;DHT22;11000;50.360;7.582;2024-01-11T00:53:20;-4.10;99.90
21678;DHT22;11000;50.360;7.582;2024-01-11T00:55:40;-4.10;99.90
21678;DHT22;11000;50.360;7.582;2024-01-11T00:58:01;-4.10;99.90
21678;DHT22;11000;50.360;7.582;2024-01-11T01:00:21;-4.10;99.90
21678;DHT22;11000;50.360;7.582;2024-01-11T01:02:42;-4.10;99.90
21678;DHT22;11000;50.360;7.582;2024-01-11T01:05:03;-4.10;99.90
21678;DHT22;11000;50.360;7.582;2024-01-11T01:07:23;-4.10;99.90
21678;DHT22;11000;50.360;7.582;2024-01-11T01:09:44;-4.10;99.90
21678;DHT22;11000;50.360;7.582;2024-01-11T01:12:04;-4.20;99.90
21678;DHT22;11000;50.360;7.582;2024-01-11T01:14:25;-4.10;99.90
21678;DHT22;11000;50.360;7.582;2024-01-11T01:16:45;-4.10;99.90
21678;DHT22;11000;50.360;7.582;2024-01-11T01:19:06;-4.10;99.90
21678;DHT22;11000;50.360;7.582;2024-01-11T01:21:26;-4.10;99.90
21678;DHT22;11000;50.360;7.582;2024-01-11T01:23:48;-4.20;99.90
21678;DHT22;11000;50.360;7.582;2024-01-11T01:26:08;-4.20;99.90
21678;DHT22;11000;50.360;7.582;2024-01-11T01:28:29;-4.20;99.90
21678;DHT22;11000;50.360;7.582;2024-01-11T01:30:49;-4.10;99.90
21678;DHT22;11000;50.360;7.582;2024-01-11T01:33:10;-4.10;99.90
21678;DHT22;11000;50.360;7.582;2024-01-11T01:35:30;-4.20;99.90
21678;DHT22;11000;50.360;7.582;2024-01-11T01:37:51;-4.20;99.90
21678;DHT22;11000;50.360;7.582;2024-01-11T01:40:12;-4.20;99.90
21678;DHT22;11000;50.360;7.582;2024-01-11T01:42:32;-4.20;99.90
21678;DHT22;11000;50.360;7.582;2024-01-11T01:44:53;-4.20;99.90
21678;DHT22;11000;50.360;7.582;2024-01-11T01:47:13;-4.10;99.90
21678;DHT22;11000;50.360;7.582;2024-01-11T01:49:34;-4.20;99.90
21678;DHT22;11000;50.360;7.582;2024-01-11T01:51:56;-4.20;99.90
21678;DHT22;11000;50.360;7.582;2024-01-11T01:54:17;-4.30;99.90
21678;DHT22;11000;50.360;7.582;2024-01-11T01:56:39;-4.20;99.90
21678;DHT22;11000;50.360;7.582;2024-01-11T01:59:01;-4.20;99.90
21678;DHT22;11000;50.360;7.582;2024-01-11T02:01:23;-4.20;99.90
21678;DHT22;11000;50.360;7.582;2024-01-11T02:03:44;-4.20;99.90
21678;DHT22;11000;50.360;7.582;2024-01-11T02:06:05;-4.20;99.90
21678;DHT22;11000;50.360;7.582;2024-01-11T02:08:27;-4.20;99.90
21678;DHT22;11000;50.360;7.582;2024-01-11T02:10:48;-4.20;99.90
21678;DHT22;11000;50.360;7.582;2024-01-11T02:13:09;-4.20;99.90
21678;DHT22;11000;50.360;7.582;2024-01-11T02:15:30;-4.20;99.90
21678;DHT22;11000;50.360;7.582;2024-01-11T02:17:50;-4.20;99.90
21678;DHT22;11000;50.360;7.582;2024-01-11T02:20:11;-4.20;99.90
21678;DHT22;11000;50.360;7.582;2024-01-11T02:22:35;-4.20;99.90
21678;DHT22;11000;50.360;7.582;2024-01-11T02:24:56;-4.20;99.90
21678;DHT22;11000;50.360;7.582;2024-01-11T02:27:18;-4.10;99.90
21678;DHT22;11000;50.360;7.582;2024-01-11T02:29:38;-4.20;99.90
21678;DHT22;11000;50.360;7.582;2024-01-11T02:32:00;-4.20;99.90
21678;DHT22;11000;50.360;7.582;2024-01-11T02:34:26;-4.20;99.90
21678;DHT22;11000;50.360;7.582;2024-01-11T02:36:47;-4.30;99.90
21678;DHT22;11000;50.360;7.582;2024-01-11T02:39:07;-4.30;99.90
21678;DHT22;11000;50.360;7.582;2024-01-11T02:41:28;-4.30;99.90
21678;DHT22;11000;50.360;7.582;2024-01-11T02:43:49;-4.30;99.90
21678;DHT22;11000;50.360;7.582;2024-01-11T02:46:09;-4.30;99.90
21678;DHT22;11000;50.360;7.582;2024-01-11T02:48:30;-4.40;99.90
21678;DHT22;11000;50.360;7.582;2024-01-11T02:50:50;-4.40;99.90
21678;DHT22;11000;50.360;7.582;2024-01-11T02:53:11;-4.40;99.90
21678;DHT22;11000;50.360;7.582;2024-01-11T02:55:31;-4.40;99.90
21678;DHT22;11000;50.360;7.582;2024-01-11T02:57:52;-4.40;99.90
21678;DHT22;11000;50.360;7.582;2024-01-11T03:00:12;-4.40;99.90
21678;DHT22;11000;50.360;7.582;2024-01-11T03:02:33;-4.40;99.90
21678;DHT22;11000;50.360;7.582;2024-01-11T03:04:53;-4.40;99.90
21678;DHT22;11000;50.360;7.582;2024-01-11T03:07:14;-4.40;99.90
21678;DHT22;11000;50.360;7.582;2024-01-11T03:09:34;-4.40;99.90
21678;DHT22;11000;50.360;7.582;2024-01-11T03:11:55;-4.50;99.90
21678;DHT22;11000;50.360;7.582;2024-01-11T03:14:16;-4.40;99.90
21678;DHT22;11000;50.360;7.582;2024-01-11T03:16:36;-4.50;99.90
21678;DHT22;11000;50.360;7.582;2024-01-11T03:18:57;-4.40;99.90
21678;DHT22;11000;50.360;7.582;2024-01-11T03:21:18;-4.50;99.90
21678;DHT22;11000;50.360;7.582;2024-01-11T03:23:38;-4.50;99.90
21678;DHT22;11000;50.360;7.582;2024-01-11T03:25:59;-4.40;99.90
21678;DHT22;11000;50.360;7.582;2024-01-11T03:28:19;-4.50;99.90
21678;DHT22;11000;50.360;7.582;2024-01-11T03:30:40;-4.50;99.90
21678;DHT22;11000;50.360;7.582;2024-01-11T03:33:00;-4.50;99.90
21678;DHT22;11000;50.360;7.582;2024-01-11T03:35:21;-4.50;99.90
21678;DHT22;11000;50.360;7.582;2024-01-11T03:37:41;-4.50;99.90
21678;DHT22;11000;50.360;7.582;2024-01-11T03:40:05;-4.50;99.90
21678;DHT22;11000;50.360;7.582;2024-01-11T03:42:26;-4.60;99.90
21678;DHT22;11000;50.360;7.582;2024-01-11T03:44:47;-4.60;99.90
21678;DHT22;11000;50.360;7.582;2024-01-11T03:47:07;-4.60;99.90
21678;DHT22;11000;50.360;7.582;2024-01-11T03:49:27;-4.60;99.90
21678;DHT22;11000;50.360;7.582;2024-01-11T03:51:48;-4.60;99.90
21678;DHT22;11000;50.360;7.582;2024-01-11T03:54:08;-4.60;99.90
21678;DHT22;11000;50.360;7.582;2024-01-11T03:56:29;-4.60;99.90
21678;DHT22;11000;50.360;7.582;2024-01-11T03:58:49;-4.70;99.90
21678;DHT22;11000;50.360;7.582;2024-01-11T04:01:10;-4.70;99.90
21678;DHT22;11000;50.360;7.582;2024-01-11T04:03:31;-4.60;99.90
21678;DHT22;11000;50.360;7.582;2024-01-11T04:05:51;-4.70;99.90
21678;DHT22;11000;50.360;7.582;2024-01-11T04:08:12;-4.70;99.90
21678;DHT22;11000;50.360;7.582;2024-01-11T04:10:32;-4.70;99.90
21678;DHT22;11000;50.360;7.582;2024-01-11T04:12:53;-4.70;99.90
21678;DHT22;11000;50.360;7.582;2024-01-11T04:15:14;-4.80;99.90
21678;DHT22;11000;50.360;7.582;2024-01-11T04:17:34;-4.80;99.90
21678;DHT22;11000;50.360;7.582;2024-01-11T04:19:55;-4.80;99.90
21678;DHT22;11000;50.360;7.582;2024-01-11T04:22:15;-4.80;99.90
21678;DHT22;11000;50.360;7.582;2024-01-11T04:24:36;-4.70;99.90
21678;DHT22;11000;50.360;7.582;2024-01-11T04:26:56;-4.80;99.90
21678;DHT22;11000;50.360;7.582;2024-01-11T04:29:17;-4.80;99.90
21678;DHT22;11000;50.360;7.582;2024-01-11T04:31:38;-4.80;99.90
21678;DHT22;11000;50.360;7.582;2024-01-11T04:33:59;-4.80;99.90
21678;DHT22;11000;50.360;7.582;2024-01-11T04:36:19;-4.80;99.90
21678;DHT22;11000;50.360;7.582;2024-01-11T04:38:40;-4.80;99.90
21678;DHT22;11000;50.360;7.582;2024-01-11T04:41:00;-4.80;99.90
21678;DHT22;11000;50.360;7.582;2024-01-11T04:43:21;-4.90;99.90
21678;DHT22;11000;50.360;7.582;2024-01-11T04:45:41;-4.90;99.90
21678;DHT22;11000;50.360;7.582;2024-01-11T04:48:02;-4.90;99.90
21678;DHT22;11000;50.360;7.582;2024-01-11T04:50:22;-4.90;99.90
21678;DHT22;11000;50.360;7.582;2024-01-11T04:52:43;-4.90;99.90
21678;DHT22;11000;50.360;7.582;2024-01-11T04:55:03;-4.90;99.90
21678;DHT22;11000;50.360;7.582;2024-01-11T04:57:24;-4.90;99.90
21678;DHT22;11000;50.360;7.582;2024-01-11T04:59:44;-4.90;99.90
21678;DHT22;11000;50.360;7.582;2024-01-11T05:02:05;-4.80;99.90
21678;DHT22;11000;50.360;7.582;2024-01-11T05:04:26;-4.90;99.90
21678;DHT22;11000;50.360;7.582;2024-01-11T05:06:46;-4.90;99.90
21678;DHT22;11000;50.360;7.582;2024-01-11T05:09:07;-4.80;99.90
21678;DHT22;11000;50.360;7.582;2024-01-11T05:11:27;-4.90;99.90
21678;DHT22;11000;50.360;7.582;2024-01-11T05:13:48;-4.90;99.90
21678;DHT22;11000;50.360;7.582;2024-01-11T05:16:20;-4.90;99.90
21678;DHT22;11000;50.360;7.582;2024-01-11T05:18:41;-4.80;99.90
21678;DHT22;11000;50.360;7.582;2024-01-11T05:21:01;-4.80;99.90
21678;DHT22;11000;50.360;7.582;2024-01-11T05:23:22;-4.90;99.90
21678;DHT22;11000;50.360;7.582;2024-01-11T05:25:42;-4.90;99.90
21678;DHT22;11000;50.360;7.582;2024-01-11T05:28:03;-4.90;99.90
21678;DHT22;11000;50.360;7.582;2024-01-11T05:30:24;-4.90;99.90
21678;DHT22;11000;50.360;7.582;2024-01-11T05:32:44;-5.00;99.90
21678;DHT22;11000;50.360;7.582;2024-01-11T05:35:05;-4.90;99.90
21678;DHT22;11000;50.360;7.582;2024-01-11T05:37:25;-5.00;99.90
21678;DHT22;11000;50.360;7.582;2024-01-11T05:39:46;-5.00;99.90
21678;DHT22;11000;50.360;7.582;2024-01-11T05:42:06;-5.00;99.90
21678;DHT22;11000;50.360;7.582;2024-01-11T05:44:27;-5.00;99.90
21678;DHT22;11000;50.360;7.582;2024-01-11T05:46:47;-5.00;99.90
21678;DHT22;11000;50.360;7.582;2024-01-11T05:49:08;-5.00;99.90
21678;DHT22;11000;50.360;7.582;2024-01-11T05:51:28;-5.00;99.90
21678;DHT22;11000;50.360;7.582;2024-01-11T05:53:49;-5.00;99.90
21678;DHT22;11000;50.360;7.582;2024-01-11T05:56:10;-4.90;99.90
21678;DHT22;11000;50.360;7.582;2024-01-11T05:58:30;-4.90;99.90
21678;DHT22;11000;50.360;7.582;2024-01-11T06:00:51;-5.00;99.90
21678;DHT22;11000;50.360;7.582;2024-01-11T06:03:14;-5.00;99.90
21678;DHT22;11000;50.360;7.582;2024-01-11T06:05:35;-5.00;99.90
21678;DHT22;11000;50.360;7.582;2024-01-11T06:07:55;-5.00;99.90
21678;DHT22;11000;50.360;7.582;2024-01-11T06:10:16;-5.00;99.90
21678;DHT22;11000;50.360;7.582;2024-01-11T06:12:37;-5.00;99.90
21678;DHT22;11000;50.360;7.582;2024-01-11T06:14:59;-5.00;99.90
21678;DHT22;11000;50.360;7.582;2024-01-11T06:17:19;-5.00;99.90
21678;DHT22;11000;50.360;7.582;2024-01-11T06:19:40;-5.00;99.90
21678;DHT22;11000;50.360;7.582;2024-01-11T06:22:00;-5.00;99.90
21678;DHT22;11000;50.360;7.582;2024-01-11T06:24:21;-5.00;99.90
21678;DHT22;11000;50.360;7.582;2024-01-11T06:26:41;-5.00;99.90
21678;DHT22;11000;50.360;7.582;2024-01-11T06:29:02;-5.00;99.90
21678;DHT22;11000;50.360;7.582;2024-01-11T06:31:22;-5.00;99.90
21678;DHT22;11000;50.360;7.582;2024-01-11T06:33:43;-5.00;99.90
21678;DHT22;11000;50.360;7.582;2024-01-11T06:36:06;-5.00;99.90
21678;DHT22;11000;50.360;7.582;2024-01-11T06:38:28;-5.00;99.90
21678;DHT22;11000;50.360;7.582;2024-01-11T06:40:49;-5.00;99.90
21678;DHT22;11000;50.360;7.582;2024-01-11T06:43:09;-5.10;99.90
21678;DHT22;11000;50.360;7.582;2024-01-11T06:45:30;-5.10;99.90
21678;DHT22;11000;50.360;7.582;2024-01-11T06:47:50;-5.10;99.90
21678;DHT22;11000;50.360;7.582;2024-01-11T06:50:13;-5.10;99.90
21678;DHT22;11000;50.360;7.582;2024-01-11T06:52:33;-5.10;99.90
21678;DHT22;11000;50.360;7.582;2024-01-11T06:54:54;-5.10;99.90
21678;DHT22;11000;50.360;7.582;2024-01-11T06:57:14;-5.10;99.90
21678;DHT22;11000;50.360;7.582;2024-01-11T06:59:35;-5.10;99.90
21678;DHT22;11000;50.360;7.582;2024-01-11T07:01:55;-5.10;99.90
21678;DHT22;11000;50.360;7.582;2024-01-11T07:04:16;-5.10;99.90
21678;DHT22;11000;50.360;7.582;2024-01-11T07:06:36;-5.10;99.90
21678;DHT22;11000;50.360;7.582;2024-01-11T07:08:57;-5.10;99.90
21678;DHT22;11000;50.360;7.582;2024-01-11T07:11:18;-5.20;99.90
21678;DHT22;11000;50.360;7.582;2024-01-11T07:13:38;-5.20;99.90
21678;DHT22;11000;50.360;7.582;2024-01-11T07:15:59;-5.20;99.90
21678;DHT22;11000;50.360;7.582;2024-01-11T07:18:20;-5.10;99.90
21678;DHT22;11000;50.360;7.582;2024-01-11T07:20:40;-5.10;99.90
21678;DHT22;11000;50.360;7.582;2024-01-11T07:23:01;-5.10;99.90
21678;DHT22;11000;50.360;7.582;2024-01-11T07:25:22;-5.10;99.90
21678;DHT22;11000;50.360;7.582;2024-01-11T07:27:42;-5.10;99.90
21678;DHT22;11000;50.360;7.582;2024-01-11T07:30:03;-5.10;99.90
21678;DHT22;11000;50.360;7.582;2024-01-11T07:32:26;-5.10;99.90
21678;DHT22;11000;50.360;7.582;2024-01-11T07:34:47;-5.20;99.90
21678;DHT22;11000;50.360;7.582;2024-01-11T07:37:07;-5.10;99.90
21678;DHT22;11000;50.360;7.582;2024-01-11T07:39:28;-5.20;99.90
21678;DHT22;11000;50.360;7.582;2024-01-11T07:41:51;-5.20;99.90
21678;DHT22;11000;50.360;7.582;2024-01-11T07:44:12;-5.20;99.90
21678;DHT22;11000;50.360;7.582;2024-01-11T07:46:32;-5.20;99.90
21678;DHT22;11000;50.360;7.582;2024-01-11T07:48:53;-5.10;99.90
21678;DHT22;11000;50.360;7.582;2024-01-11T07:51:13;-5.10;99.90
21678;DHT22;11000;50.360;7.582;2024-01-11T07:53:34;-5.20;99.90
21678;DHT22;11000;50.360;7.582;2024-01-11T07:55:54;-5.10;99.90
21678;DHT22;11000;50.360;7.582;2024-01-11T07:58:15;-5.10;99.90
21678;DHT22;11000;50.360;7.582;2024-01-11T08:00:35;-5.10;99.90
21678;DHT22;11000;50.360;7.582;2024-01-11T08:02:56;-5.10;99.90
21678;DHT22;11000;50.360;7.582;2024-01-11T08:05:16;-5.10;99.90
21678;DHT22;11000;50.360;7.582;2024-01-11T08:07:37;-5.10;99.90
21678;DHT22;11000;50.360;7.582;2024-01-11T08:09:57;-5.10;99.90
21678;DHT22;11000;50.360;7.582;2024-01-11T08:12:18;-5.10;99.90
21678;DHT22;11000;50.360;7.582;2024-01-11T08:14:39;-5.10;99.90
21678;DHT22;11000;50.360;7.582;2024-01-11T08:16:59;-5.10;99.90
21678;DHT22;11000;50.360;7.582;2024-01-11T08:19:21;-5.10;99.90
21678;DHT22;11000;50.360;7.582;2024-01-11T08:21:42;-5.10;99.90
21678;DHT22;11000;50.360;7.582;2024-01-11T08:24:03;-5.00;99.90
21678;DHT22;11000;50.360;7.582;2024-01-11T08:26:23;-5.00;99.90
21678;DHT22;11000;50.360;7.582;2024-01-11T08:28:44;-4.90;99.90
21678;DHT22;11000;50.360;7.582;2024-01-11T08:31:04;-4.90;99.90
21678;DHT22;11000;50.360;7.582;2024-01-11T08:33:25;-4.90;99.90
21678;DHT22;11000;50.360;7.582;2024-01-11T08:35:46;-4.90;99.90
21678;DHT22;11000;50.360;7.582;2024-01-11T08:38:06;-4.80;99.90
21678;DHT22;11000;50.360;7.582;2024-01-11T08:40:27;-4.80;99.90
21678;DHT22;11000;50.360;7.582;2024-01-11T08:42:47;-4.70;99.90
21678;DHT22;11000;50.360;7.582;2024-01-11T08:45:08;-4.70;99.90
21678;DHT22;11000;50.360;7.582;2024-01-11T08:47:29;-4.60;99.90
21678;DHT22;11000;50.360;7.582;2024-01-11T08:49:50;-4.60;99.90
21678;DHT22;11000;50.360;7.582;2024-01-11T08:52:10;-4.60;99.90
21678;DHT22;11000;50.360;7.582;2024-01-11T08:54:31;-4.60;99.90
21678;DHT22;11000;50.360;7.582;2024-01-11T08:56:53;-4.40;99.90
21678;DHT22;11000;50.360;7.582;2024-01-11T08:59:13;-4.40;99.90
21678;DHT22;11000;50.360;7.582;2024-01-11T09:01:37;-4.30;99.90
21678;DHT22;11000;50.360;7.582;2024-01-11T09:03:57;-4.30;99.90
21678;DHT22;11000;50.360;7.582;2024-01-11T09:06:18;-4.20;99.90
21678;DHT22;11000;50.360;7.582;2024-01-11T09:08:38;-4.20;99.90
21678;DHT22;11000;50.360;7.582;2024-01-11T09:11:01;-4.10;99.90
21678;DHT22;11000;50.360;7.582;2024-01-11T09:13:21;-4.10;99.90
21678;DHT22;11000;50.360;7.582;2024-01-11T09:15:42;-4.00;99.90
21678;DHT22;11000;50.360;7.582;2024-01-11T09:18:03;-4.10;99.90
21678;DHT22;11000;50.360;7.582;2024-01-11T09:20:23;-4.00;99.90
21678;DHT22;11000;50.360;7.582;2024-01-11T09:22:44;-3.90;99.90
21678;DHT22;11000;50.360;7.582;2024-01-11T09:25:05;-3.90;99.90
21678;DHT22;11000;50.360;7.582;2024-01-11T09:27:27;-3.90;99.90
21678;DHT22;11000;50.360;7.582;2024-01-11T09:29:48;-3.80;99.90
21678;DHT22;11000;50.360;7.582;2024-01-11T09:32:08;-3.80;99.90
21678;DHT22;11000;50.360;7.582;2024-01-11T09:34:29;-3.80;99.90
21678;DHT22;11000;50.360;7.582;2024-01-11T09:36:49;-3.80;99.90
21678;DHT22;11000;50.360;7.582;2024-01-11T09:39:10;-3.80;99.90
21678;DHT22;11000;50.360;7.582;2024-01-11T09:41:32;-3.80;99.90
21678;DHT22;11000;50.360;7.582;2024-01-11T09:43:54;-3.70;99.90
21678;DHT22;11000;50.360;7.582;2024-01-11T09:46:18;-3.60;99.90
21678;DHT22;11000;50.360;7.582;2024-01-11T09:48:39;-3.70;99.90
21678;DHT22;11000;50.360;7.582;2024-01-11T09:51:04;-3.60;99.90
21678;DHT22;11000;50.360;7.582;2024-01-11T09:53:29;-3.60;99.90
21678;DHT22;11000;50.360;7.582;2024-01-11T09:55:52;-3.60;99.90
21678;DHT22;11000;50.360;7.582;2024-01-11T09:58:14;-3.50;99.90
21678;DHT22;11000;50.360;7.582;2024-01-11T10:00:35;-3.50;99.90
21678;DHT22;11000;50.360;7.582;2024-01-11T10:02:55;-3.40;99.90
21678;DHT22;11000;50.360;7.582;2024-01-11T10:05:17;-3.40;99.90
21678;DHT22;11000;50.360;7.582;2024-01-11T10:07:38;-3.40;99.90
21678;DHT22;11000;50.360;7.582;2024-01-11T10:09:58;-3.40;99.90
21678;DHT22;11000;50.360;7.582;2024-01-11T10:12:20;-3.30;99.90
21678;DHT22;11000;50.360;7.582;2024-01-11T10:14:43;-3.30;99.90
21678;DHT22;11000;50.360;7.582;2024-01-11T10:17:04;-3.20;99.90
21678;DHT22;11000;50.360;7.582;2024-01-11T10:19:25;-3.20;99.90
21678;DHT22;11000;50.360;7.582;2024-01-11T10:21:46;-3.10;99.90
21678;DHT22;11000;50.360;7.582;2024-01-11T10:24:07;-3.10;99.90
21678;DHT22;11000;50.360;7.582;2024-01-11T10:26:28;-3.00;99.90
21678;DHT22;11000;50.360;7.582;2024-01-11T10:28:50;-2.90;99.90
21678;DHT22;11000;50.360;7.582;2024-01-11T10:31:10;-2.90;99.90
21678;DHT22;11000;50.360;7.582;2024-01-11T10:33:33;-2.90;99.90
21678;DHT22;11000;50.360;7.582;2024-01-11T10:35:54;-2.90;99.90
21678;DHT22;11000;50.360;7.582;2024-01-11T10:38:14;-2.90;99.90
21678;DHT22;11000;50.360;7.582;2024-01-11T10:40:36;-2.80;99.90
21678;DHT22;11000;50.360;7.582;2024-01-11T10:42:59;-2.80;99.90
21678;DHT22;11000;50.360;7.582;2024-01-11T10:45:21;-2.70;99.90
21678;DHT22;11000;50.360;7.582;2024-01-11T10:47:50;-2.70;99.90
21678;DHT22;11000;50.360;7.582;2024-01-11T10:50:12;-2.60;99.90
21678;DHT22;11000;50.360;7.582;2024-01-11T10:52:43;-2.60;99.90
21678;DHT22;11000;50.360;7.582;2024-01-11T10:55:07;-2.50;99.90
21678;DHT22;11000;50.360;7.582;2024-01-11T10:57:29;-2.50;99.90
21678;DHT22;11000;50.360;7.582;2024-01-11T10:59:52;-2.40;99.90
21678;DHT22;11000;50.360;7.582;2024-01-11T11:02:13;-2.40;99.90
21678;DHT22;11000;50.360;7.582;2024-01-11T11:04:36;-2.30;99.90
21678;DHT22;11000;50.360;7.582;2024-01-11T11:07:00;-2.20;99.90
21678;DHT22;11000;50.360;7.582;2024-01-11T11:09:21;-2.10;99.90
21678;DHT22;11000;50.360;7.582;2024-01-11T11:11:45;-2.10;99.90
21678;DHT22;11000;50.360;7.582;2024-01-11T11:14:06;-2.00;99.90
21678;DHT22;11000;50.360;7.582;2024-01-11T11:16:27;-2.10;99.90
21678;DHT22;11000;50.360;7.582;2024-01-11T11:18:52;-2.10;99.90
21678;DHT22;11000;50.360;7.582;2024-01-11T11:21:15;-2.20;99.90
21678;DHT22;11000;50.360;7.582;2024-01-11T11:23:35;-2.10;99.90
21678;DHT22;11000;50.360;7.582;2024-01-11T11:25:56;-2.10;99.90
21678;DHT22;11000;50.360;7.582;2024-01-11T11:28:17;-2.10;99.90
21678;DHT22;11000;50.360;7.582;2024-01-11T11:30:40;-2.00;99.90
21678;DHT22;11000;50.360;7.582;2024-01-11T11:33:18;-1.90;99.90
21678;DHT22;11000;50.360;7.582;2024-01-11T11:35:39;-1.80;99.90
21678;DHT22;11000;50.360;7.582;2024-01-11T11:37:59;-1.80;99.90
21678;DHT22;11000;50.360;7.582;2024-01-11T11:40:20;-1.70;99.90
21678;DHT22;11000;50.360;7.582;2024-01-11T11:42:42;-1.70;99.90
21678;DHT22;11000;50.360;7.582;2024-01-11T11:45:03;-1.70;99.90
21678;DHT22;11000;50.360;7.582;2024-01-11T11:47:24;-1.60;99.90
21678;DHT22;11000;50.360;7.582;2024-01-11T11:52:26;-1.40;99.90
21678;DHT22;11000;50.360;7.582;2024-01-11T11:54:46;-1.40;99.90
21678;DHT22;11000;50.360;7.582;2024-01-11T11:57:07;-1.30;99.90
21678;DHT22;11000;50.360;7.582;2024-01-11T11:59:28;-1.30;99.90
21678;DHT22;11000;50.360;7.582;2024-01-11T12:01:50;-1.20;99.90
21678;DHT22;11000;50.360;7.582;2024-01-11T12:04:13;-1.20;99.90
21678;DHT22;11000;50.360;7.582;2024-01-11T12:06:35;-1.10;99.90
21678;DHT22;11000;50.360;7.582;2024-01-11T12:08:55;-0.90;99.90
21678;DHT22;11000;50.360;7.582;2024-01-11T12:11:21;-0.80;99.90
21678;DHT22;11000;50.360;7.582;2024-01-11T12:13:42;-0.90;99.90
21678;DHT22;11000;50.360;7.582;2024-01-11T12:16:04;-1.00;99.90
21678;DHT22;11000;50.360;7.582;2024-01-11T12:18:25;-0.90;99.90
21678;DHT22;11000;50.360;7.582;2024-01-11T12:20:46;-0.80;99.90
21678;DHT22;11000;50.360;7.582;2024-01-11T12:23:06;-0.70;99.90
21678;DHT22;11000;50.360;7.582;2024-01-11T12:25:27;-0.70;99.90
21678;DHT22;11000;50.360;7.582;2024-01-11T12:27:47;-0.70;99.90
21678;DHT22;11000;50.360;7.582;2024-01-11T12:30:08;-0.70;99.90
21678;DHT22;11000;50.360;7.582;2024-01-11T12:32:31;-0.70;99.90
21678;DHT22;11000;50.360;7.582;2024-01-11T12:34:52;-0.70;99.90
21678;DHT22;11000;50.360;7.582;2024-01-11T12:37:14;-0.40;99.90
21678;DHT22;11000;50.360;7.582;2024-01-11T12:39:37;-0.20;99.90
21678;DHT22;11000;50.360;7.582;2024-01-11T12:41:58;0.00;99.90
21678;DHT22;11000;50.360;7.582;2024-01-11T12:44:20;0.20;99.90
21678;DHT22;11000;50.360;7.582;2024-01-11T12:46:40;0.30;99.90
21678;DHT22;11000;50.360;7.582;2024-01-11T12:49:01;0.30;99.90
21678;DHT22;11000;50.360;7.582;2024-01-11T12:51:21;0.40;99.90
21678;DHT22;11000;50.360;7.582;2024-01-11T12:53:45;0.20;99.90
21678;DHT22;11000;50.360;7.582;2024-01-11T12:56:07;0.30;99.90
21678;DHT22;11000;50.360;7.582;2024-01-11T12:58:30;0.40;99.90
21678;DHT22;11000;50.360;7.582;2024-01-11T13:00:51;0.50;99.90
21678;DHT22;11000;50.360;7.582;2024-01-11T13:03:12;0.30;99.90
21678;DHT22;11000;50.360;7.582;2024-01-11T13:05:35;0.40;99.90
21678;DHT22;11000;50.360;7.582;2024-01-11T13:07:55;0.50;99.90
21678;DHT22;11000;50.360;7.582;2024-01-11T13:10:16;0.60;99.90
21678;DHT22;11000;50.360;7.582;2024-01-11T13:12:37;0.60;99.90
21678;DHT22;11000;50.360;7.582;2024-01-11T13:14:57;0.60;99.90
21678;DHT22;11000;50.360;7.582;2024-01-11T13:17:18;0.70;99.90
21678;DHT22;11000;50.360;7.582;2024-01-11T13:19:39;0.80;99.90
21678;DHT22;11000;50.360;7.582;2024-01-11T13:21:59;0.80;99.90
21678;DHT22;11000;50.360;7.582;2024-01-11T13:24:20;0.80;99.90
21678;DHT22;11000;50.360;7.582;2024-01-11T13:26:40;0.70;99.90
21678;DHT22;11000;50.360;7.582;2024-01-11T13:29:01;0.90;99.90
21678;DHT22;11000;50.360;7.582;2024-01-11T13:31:21;0.90;99.90
21678;DHT22;11000;50.360;7.582;2024-01-11T13:33:42;0.90;99.90
21678;DHT22;11000;50.360;7.582;2024-01-11T13:36:03;1.10;99.90
21678;DHT22;11000;50.360;7.582;2024-01-11T13:38:24;1.20;99.90
21678;DHT22;11000;50.360;7.582;2024-01-11T13:40:44;1.10;99.90
21678;DHT22;11000;50.360;7.582;2024-01-11T13:43:05;1.10;99.90
21678;DHT22;11000;50.360;7.582;2024-01-11T13:45:26;1.20;99.90
21678;DHT22;11000;50.360;7.582;2024-01-11T13:47:46;1.20;99.90
21678;DHT22;11000;50.360;7.582;2024-01-11T13:50:07;1.20;99.90
21678;DHT22;11000;50.360;7.582;2024-01-11T13:52:28;1.10;99.90
21678;DHT22;11000;50.360;7.582;2024-01-11T13:54:48;1.20;99.90
21678;DHT22;11000;50.360;7.582;2024-01-11T13:57:09;1.30;99.90
21678;DHT22;11000;50.360;7.582;2024-01-11T13:59:29;1.40;99.90
21678;DHT22;11000;50.360;7.582;2024-01-11T14:01:50;1.40;99.90
21678;DHT22;11000;50.360;7.582;2024-01-11T14:04:11;1.30;99.90
21678;DHT22;11000;50.360;7.582;2024-01-11T14:06:31;1.30;99.90
21678;DHT22;11000;50.360;7.582;2024-01-11T14:08:52;1.30;99.90
21678;DHT22;11000;50.360;7.582;2024-01-11T14:11:12;1.40;99.90
21678;DHT22;11000;50.360;7.582;2024-01-11T14:13:33;1.50;99.90
21678;DHT22;11000;50.360;7.582;2024-01-11T14:15:53;1.50;99.90
21678;DHT22;11000;50.360;7.582;2024-01-11T14:18:14;1.40;99.90
21678;DHT22;11000;50.360;7.582;2024-01-11T14:20:34;1.40;99.90
21678;DHT22;11000;50.360;7.582;2024-01-11T14:22:55;1.40;99.90
21678;DHT22;11000;50.360;7.582;2024-01-11T14:25:17;1.20;99.90
21678;DHT22;11000;50.360;7.582;2024-01-11T14:27:38;1.20;99.90
21678;DHT22;11000;50.360;7.582;2024-01-11T14:29:58;1.20;99.90
21678;DHT22;11000;50.360;7.582;2024-01-11T14:32:19;1.20;99.90
21678;DHT22;11000;50.360;7.582;2024-01-11T14:34:39;1.20;99.90
21678;DHT22;11000;50.360;7.582;2024-01-11T14:37:00;1.30;99.90
21678;DHT22;11000;50.360;7.582;2024-01-11T14:39:20;1.30;99.90
21678;DHT22;11000;50.360;7.582;2024-01-11T14:41:43;1.30;99.90
21678;DHT22;11000;50.360;7.582;2024-01-11T14:44:04;1.30;99.90
21678;DHT22;11000;50.360;7.582;2024-01-11T14:46:24;1.30;99.90
21678;DHT22;11000;50.360;7.582;2024-01-11T14:48:45;1.30;99.90
21678;DHT22;11000;50.360;7.582;2024-01-11T14:51:06;1.20;99.90
21678;DHT22;11000;50.360;7.582;2024-01-11T14:53:28;1.20;99.90
21678;DHT22;11000;50.360;7.582;2024-01-11T14:55:48;1.20;99.90